Time;durP1;ratioP1;P1;durP2;ratioP2;P2;SDS_P1;SDS_P2;PMS_P1;PMS_P2;Temp;Humidity;BMP_temperature;BMP_pressure;BME280_temperature;BME280_humidity;BME280_pressure;Samples;Min_cycle;Max_cycle;Signal;HPM_P1;HPM_P2
2021/01/14 00:01:14;;;;;;;8.85;4.10;;;5.70;82.90;;;;;;4916536;29;20043;-86
2021/01/14 00:03:40;;;;;;;12.88;4.50;;;5.70;82.90;;;;;;4885718;29;20043;-88
2021/01/14 00:06:06;;;;;;;8.35;4.65;;;5.70;83.00;;;;;;4886115;29;20466;-88
2021/01/14 00:08:32;;;;;;;8.50;4.50;;;5.70;83.00;;;;;;4917008;29;20080;-88
2021/01/14 00:10:58;;;;;;;12.30;5.15;;;5.70;83.00;;;;;;4886134;29;20040;-88
2021/01/14 00:13:23;;;;;;;11.98;5.22;;;5.70;83.00;;;;;;4901151;29;20043;-87
2021/01/14 00:15:49;;;;;;;11.15;4.38;;;5.70;83.10;;;;;;4885901;29;20367;-88
2021/01/14 00:18:14;;;;;;;9.57;4.78;;;5.70;83.10;;;;;;4886075;29;20044;-88
2021/01/14 00:20:40;;;;;;;8.02;4.30;;;5.70;83.10;;;;;;4885555;29;20063;-88
2021/01/14 00:23:06;;;;;;;8.63;3.88;;;5.70;83.10;;;;;;4901503;29;20449;-88
2021/01/14 00:25:31;;;;;;;7.45;4.05;;;5.70;83.00;;;;;;4901005;29;20056;-88
2021/01/14 00:27:57;;;;;;;7.57;3.70;;;5.70;83.00;;;;;;4917361;29;20039;-88
2021/01/14 00:30:28;;;;;;;6.97;3.35;;;5.70;83.00;;;;;;4900976;29;20039;-87
2021/01/14 00:32:59;;;;;;;8.80;3.88;;;5.70;83.00;;;;;;4917142;29;20153;-88
2021/01/14 00:35:28;;;;;;;10.05;4.50;;;5.70;83.00;;;;;;4901174;29;20046;-88
2021/01/14 00:37:55;;;;;;;8.00;3.90;;;5.70;83.00;;;;;;4917718;29;20402;-87
2021/01/14 00:40:28;;;;;;;11.20;4.15;;;5.70;83.00;;;;;;4885628;29;20073;-87
2021/01/14 00:43:05;;;;;;;8.00;3.47;;;5.70;82.90;;;;;;4917855;29;20036;-87
2021/01/14 00:45:32;;;;;;;10.82;2.50;;;5.70;82.60;;;;;;4937273;29;20032;-88
2021/01/14 00:47:59;;;;;;;6.25;2.65;;;5.70;82.30;;;;;;4938001;29;20068;-87
2021/01/14 00:50:28;;;;;;;5.75;2.10;;;5.70;82.10;;;;;;4920073;29;20055;-88
2021/01/14 00:52:54;;;;;;;6.32;2.00;;;5.70;82.00;;;;;;4937523;29;20044;-87
2021/01/14 00:55:20;;;;;;;4.43;1.83;;;5.70;82.50;;;;;;4920644;29;20046;-88
2021/01/14 00:57:46;;;;;;;8.05;2.15;;;5.70;81.70;;;;;;4920386;29;20128;-88
2021/01/14 01:00:20;;;;;;;4.43;1.95;;;5.70;81.60;;;;;;4920278;29;20043;-88
2021/01/14 01:02:47;;;;;;;3.33;1.73;;;5.70;81.40;;;;;;4904683;29;20043;-88
2021/01/14 01:05:14;;;;;;;8.43;2.50;;;5.70;81.30;;;;;;4920300;29;20099;-88
2021/01/14 01:07:46;;;;;;;5.85;2.08;;;5.70;81.20;;;;;;4919721;29;20257;-87
2021/01/14 01:10:11;;;;;;;5.75;1.85;;;5.70;81.10;;;;;;4920280;29;20489;-87
2021/01/14 01:12:37;;;;;;;4.90;1.98;;;5.70;81.00;;;;;;4920076;29;20034;-87
2021/01/14 01:15:03;;;;;;;6.53;2.08;;;5.70;81.00;;;;;;4920276;29;20470;-88
2021/01/14 01:17:32;;;;;;;5.03;1.83;;;5.60;80.70;;;;;;4920065;29;20036;-87
2021/01/14 01:19:59;;;;;;;9.20;2.25;;;5.60;80.70;;;;;;4937264;29;20413;-88
2021/01/14 01:22:25;;;;;;;6.57;2.13;;;5.60;80.60;;;;;;4904130;29;20371;-88
2021/01/14 01:24:50;;;;;;;6.50;1.95;;;5.60;80.50;;;;;;4919788;29;20147;-87
2021/01/14 01:27:16;;;;;;;9.73;2.25;;;5.60;80.40;;;;;;4920026;29;20039;-88
2021/01/14 01:29:42;;;;;;;7.47;1.98;;;5.60;80.40;;;;;;4919750;29;20397;-88
2021/01/14 01:32:07;;;;;;;5.45;2.20;;;5.60;80.40;;;;;;4919991;29;20362;-89
2021/01/14 01:34:33;;;;;;;8.00;2.70;;;5.60;80.40;;;;;;4904047;29;20163;-90
2021/01/14 01:36:58;;;;;;;9.02;2.08;;;5.60;80.10;;;;;;4920143;29;20090;-90
2021/01/14 01:39:24;;;;;;;7.55;2.33;;;5.50;79.50;;;;;;4926594;23;20052;-89
2021/01/14 01:41:54;;;;;;;4.47;1.65;;;5.50;79.10;;;;;;4937030;29;20047;-90
2021/01/14 01:44:20;;;;;;;6.15;1.67;;;5.50;79.10;;;;;;4920078;29;20036;-90
2021/01/14 01:46:46;;;;;;;6.20;1.60;;;5.50;79.10;;;;;;4903321;29;20046;-90
2021/01/14 01:49:11;;;;;;;6.97;1.65;;;5.50;79.00;;;;;;4904335;29;20047;-90
2021/01/14 01:51:40;;;;;;;4.80;1.42;;;5.50;78.90;;;;;;4919515;29;20039;-89
2021/01/14 01:54:07;;;;;;;5.20;1.77;;;5.50;79.00;;;;;;4903777;29;20443;-90
2021/01/14 01:56:34;;;;;;;4.47;1.50;;;5.50;79.00;;;;;;4919285;29;20632;-89
2021/01/14 01:59:00;;;;;;;4.47;1.45;;;5.40;78.90;;;;;;4935401;29;20107;-90
2021/01/14 02:01:27;;;;;;;5.20;1.40;;;5.40;78.90;;;;;;4903816;29;20126;-90
2021/01/14 02:03:53;;;;;;;5.35;1.52;;;5.50;79.00;;;;;;4919234;29;20042;-90
2021/01/14 02:06:20;;;;;;;3.15;1.13;;;5.50;79.00;;;;;;4919372;29;20397;-90
2021/01/14 02:08:49;;;;;;;5.55;1.77;;;5.50;79.10;;;;;;4903236;29;20048;-89
2021/01/14 02:11:26;;;;;;;6.78;1.50;;;5.50;79.10;;;;;;4919526;29;20047;-90
2021/01/14 02:14:04;;;;;;;4.65;1.35;;;5.50;79.10;;;;;;4919057;29;20036;-90
2021/01/14 02:16:32;;;;;;;2.03;1.08;;;5.50;79.00;;;;;;4918757;29;20119;-89
2021/01/14 02:18:59;;;;;;;3.35;1.20;;;5.50;79.00;;;;;;4904029;29;20074;-89
2021/01/14 02:21:29;;;;;;;5.95;1.30;;;5.50;79.00;;;;;;4919114;29;20086;-90
2021/01/14 02:24:05;;;;;;;3.50;1.40;;;5.50;78.80;;;;;;4903323;29;20134;-90
2021/01/14 02:26:33;;;;;;;2.92;1.17;;;5.50;78.80;;;;;;4918838;29;20071;-90
2021/01/14 02:29:00;;;;;;;3.78;1.70;;;5.40;78.80;;;;;;4903150;29;20044;-90
2021/01/14 02:31:26;;;;;;;4.93;1.80;;;5.40;78.80;;;;;;4903622;29;20043;-89
2021/01/14 02:33:53;;;;;;;7.25;1.65;;;5.40;78.70;;;;;;4902682;29;20106;-90
2021/01/14 02:36:20;;;;;;;2.50;1.10;;;5.40;78.60;;;;;;4918935;29;20458;-90
2021/01/14 02:38:46;;;;;;;2.75;1.00;;;5.40;78.50;;;;;;4918343;29;20135;-90
2021/01/14 02:41:11;;;;;;;4.03;1.25;;;5.40;78.60;;;;;;4918640;29;20143;-90
2021/01/14 02:43:37;;;;;;;2.90;0.90;;;5.40;78.50;;;;;;4918218;29;20059;-90
2021/01/14 02:46:05;;;;;;;1.92;0.98;;;5.40;78.40;;;;;;4918948;29;20060;-90
2021/01/14 02:49:08;;;;;;;5.18;1.33;;;5.40;78.40;;;;;;4918542;29;20071;-89
2021/01/14 02:51:50;;;;;;;2.03;1.05;;;5.40;78.30;;;;;;4918478;29;20123;-89
2021/01/14 02:54:17;;;;;;;1.85;1.10;;;5.40;78.30;;;;;;4918369;29;20109;-90
2021/01/14 02:56:47;;;;;;;5.25;1.40;;;5.40;78.60;;;;;;4902312;29;20043;-89
2021/01/14 02:59:13;;;;;;;1.95;1.10;;;5.40;78.40;;;;;;4902636;29;20044;-89
2021/01/14 03:01:39;;;;;;;2.88;1.23;;;5.40;78.40;;;;;;4902140;29;20151;-90
2021/01/14 03:04:04;;;;;;;3.90;1.40;;;5.40;78.30;;;;;;4918291;29;20044;-90
2021/01/14 03:06:30;;;;;;;3.13;1.00;;;5.40;78.30;;;;;;4902011;29;20126;-89
2021/01/14 03:08:56;;;;;;;5.60;1.05;;;5.40;78.30;;;;;;4902226;29;20508;-89
2021/01/14 03:11:26;;;;;;;3.90;1.25;;;5.40;78.20;;;;;;4902782;29;20069;-89
2021/01/14 03:13:52;;;;;;;2.72;1.00;;;5.40;78.10;;;;;;4934667;29;20066;-89
2021/01/14 03:16:18;;;;;;;3.58;1.20;;;5.40;78.10;;;;;;4918178;29;20103;-89
2021/01/14 03:18:44;;;;;;;4.10;1.92;;;5.30;78.00;;;;;;4901944;29;20055;-90
2021/01/14 03:21:09;;;;;;;3.47;1.33;;;5.30;77.90;;;;;;4918372;29;20039;-89
2021/01/14 03:23:35;;;;;;;4.82;1.20;;;5.30;78.50;;;;;;4902362;29;20710;-90
2021/01/14 03:26:00;;;;;;;4.32;1.08;;;5.30;77.90;;;;;;4902515;29;20048;-90
2021/01/14 03:28:26;;;;;;;3.70;1.13;;;5.30;77.80;;;;;;4918167;29;20094;-90
2021/01/14 03:30:53;;;;;;;1.88;0.93;;;5.30;77.70;;;;;;4902506;29;20042;-90
2021/01/14 03:33:19;;;;;;;3.97;1.50;;;5.30;77.70;;;;;;4902330;29;20059;-90
2021/01/14 03:35:45;;;;;;;5.30;1.27;;;5.30;77.70;;;;;;4917944;29;20091;-90
2021/01/14 03:38:10;;;;;;;3.38;0.90;;;5.30;77.70;;;;;;4902231;29;20123;-89
2021/01/14 03:40:36;;;;;;;1.75;0.90;;;5.30;77.70;;;;;;4901826;29;20087;-90
2021/01/14 03:43:02;;;;;;;2.50;0.85;;;5.30;77.80;;;;;;4917733;29;20075;-90
2021/01/14 03:45:27;;;;;;;1.65;0.80;;;5.30;77.80;;;;;;4901808;29;20046;-87
2021/01/14 03:47:53;;;;;;;2.42;1.02;;;5.20;77.80;;;;;;4916584;29;20046;-87
2021/01/14 03:50:19;;;;;;;5.10;1.50;;;5.20;77.80;;;;;;4934013;29;20120;-86
2021/01/14 03:52:44;;;;;;;2.55;1.25;;;5.20;77.80;;;;;;4916479;29;20442;-86
2021/01/14 03:55:10;;;;;;;2.88;1.00;;;5.20;77.70;;;;;;4934052;29;20031;-87
2021/01/14 03:57:36;;;;;;;3.78;0.95;;;5.20;77.70;;;;;;4901336;29;20035;-87
2021/01/14 04:00:06;;;;;;;4.18;1.38;;;5.20;77.60;;;;;;4916709;29;20401;-87
2021/01/14 04:02:33;;;;;;;4.03;1.15;;;5.20;77.50;;;;;;4917270;29;20390;-87
2021/01/14 04:04:58;;;;;;;2.05;1.00;;;5.10;77.40;;;;;;4900686;29;20107;-87
2021/01/14 04:07:24;;;;;;;3.63;1.00;;;5.10;77.40;;;;;;4933570;29;20481;-84
2021/01/14 04:09:50;;;;;;;4.43;1.30;;;5.10;77.30;;;;;;4916084;29;20047;-84
2021/01/14 04:12:15;;;;;;;1.70;0.88;;;5.10;77.30;;;;;;4916508;29;20039;-84
2021/01/14 04:14:50;;;;;;;4.90;1.33;;;5.10;77.30;;;;;;4916158;29;20036;-84
2021/01/14 04:17:16;;;;;;;3.13;1.08;;;5.10;77.20;;;;;;4917739;29;20069;-84
2021/01/14 04:19:42;;;;;;;2.83;1.00;;;5.00;77.10;;;;;;4920172;29;20481;-84
2021/01/14 04:22:07;;;;;;;2.40;1.00;;;5.00;77.10;;;;;;4914225;29;20084;-83
2021/01/14 04:24:36;;;;;;;5.13;1.50;;;5.00;77.10;;;;;;4924704;29;20043;-84
2021/01/14 04:27:03;;;;;;;;;;;5.00;77.10;;;;;;4914253;29;20087;-84
2021/01/14 04:29:29;;;;;;;4.53;1.10;;;5.00;77.20;;;;;;4902452;29;19919;-84
2021/01/14 04:31:55;;;;;;;4.25;1.25;;;4.90;77.20;;;;;;4918475;29;20401;-85
2021/01/14 04:34:20;;;;;;;3.30;1.30;;;4.90;77.20;;;;;;4900591;29;20036;-84
2021/01/14 04:36:46;;;;;;;2.72;1.00;;;4.90;77.80;;;;;;4919676;29;20044;-84
2021/01/14 04:39:12;;;;;;;3.75;1.30;;;4.90;77.20;;;;;;4901337;29;20051;-85
2021/01/14 04:41:50;;;;;;;3.58;1.27;;;4.90;77.30;;;;;;4888926;29;20052;-89
2021/01/14 04:44:16;;;;;;;3.00;1.15;;;4.90;77.30;;;;;;4902598;29;20115;-89
2021/01/14 04:46:48;;;;;;;4.18;1.30;;;4.80;77.40;;;;;;4902431;29;20176;-89
2021/01/14 04:49:18;;;;;;;4.95;1.30;;;4.80;77.40;;;;;;4887694;29;20040;-89
2021/01/14 04:51:48;;;;;;;7.28;1.50;;;4.80;77.40;;;;;;4902471;29;20047;-90
2021/01/14 04:54:22;;;;;;;3.40;1.20;;;4.80;77.40;;;;;;4918598;29;20431;-85
2021/01/14 04:56:53;;;;;;;2.00;1.20;;;4.80;77.40;;;;;;4900531;29;20170;-85
2021/01/14 04:59:22;;;;;;;3.63;1.42;;;4.80;77.40;;;;;;4918231;29;20107;-85
2021/01/14 05:01:50;;;;;;;;;;;4.70;77.40;;;;;;4900769;29;20135;-85
2021/01/14 05:04:21;;;;;;;1.48;0.98;;;4.70;77.40;;;;;;4900826;29;19935;-85
2021/01/14 05:06:58;;;;;;;2.92;1.20;;;4.70;77.50;;;;;;4917657;29;20385;-86
2021/01/14 05:09:38;;;;;;;3.25;1.20;;;4.70;77.50;;;;;;4917979;29;20115;-86
2021/01/14 05:12:06;;;;;;;4.35;1.35;;;4.60;77.40;;;;;;4917204;29;20044;-85
2021/01/14 05:14:33;;;;;;;4.67;1.60;;;4.60;77.40;;;;;;4899312;29;20510;-84
2021/01/14 05:16:58;;;;;;;3.90;1.10;;;4.60;77.40;;;;;;4883823;29;20044;-85
2021/01/14 05:19:24;;;;;;;2.33;1.20;;;4.60;77.40;;;;;;4899713;29;20628;-85
2021/01/14 05:21:53;;;;;;;3.03;1.45;;;4.60;77.40;;;;;;4914953;29;20051;-85
2021/01/14 05:24:19;;;;;;;4.05;1.25;;;4.60;77.40;;;;;;4917755;29;20379;-86
2021/01/14 05:26:46;;;;;;;2.30;1.23;;;4.60;77.40;;;;;;4900076;29;20040;-85
2021/01/14 05:29:19;;;;;;;3.30;1.23;;;4.60;77.30;;;;;;4916364;29;20080;-85
2021/01/14 05:31:46;;;;;;;4.85;1.40;;;4.60;77.40;;;;;;4901780;29;20036;-85
2021/01/14 05:34:14;;;;;;;2.90;1.50;;;4.60;77.40;;;;;;4917828;29;20060;-85
2021/01/14 05:37:03;;;;;;;4.47;1.43;;;4.60;77.50;;;;;;4886070;29;20049;-85
2021/01/14 05:39:28;;;;;;;;;;;4.60;77.50;;;;;;4918346;29;20112;-84
2021/01/14 05:41:55;;;;;;;3.80;1.30;;;4.60;77.60;;;;;;4900427;29;19907;-84
2021/01/14 05:44:38;;;;;;;3.65;1.60;;;4.60;77.60;;;;;;4917754;29;20044;-84
2021/01/14 05:47:24;;;;;;;4.45;1.40;;;4.50;77.50;;;;;;4917403;29;20040;-84
2021/01/14 05:50:05;;;;;;;2.38;1.33;;;4.50;77.50;;;;;;4869292;29;20045;-84
2021/01/14 05:52:32;;;;;;;2.35;1.25;;;4.50;77.50;;;;;;4917550;29;20036;-85
2021/01/14 05:55:00;;;;;;;3.55;1.55;;;4.50;77.70;;;;;;4900767;29;20028;-85
2021/01/14 05:57:30;;;;;;;3.90;1.42;;;4.50;77.60;;;;;;4900448;29;20080;-85
2021/01/14 05:59:59;;;;;;;5.55;1.73;;;4.50;77.70;;;;;;4900133;29;20119;-85
2021/01/14 06:02:31;;;;;;;2.50;1.55;;;4.50;77.60;;;;;;4917506;29;20042;-85
2021/01/14 06:04:58;;;;;;;3.70;1.50;;;4.50;77.60;;;;;;4900215;29;20059;-85
2021/01/14 06:07:37;;;;;;;6.90;1.48;;;4.50;77.60;;;;;;4917528;29;20406;-84
2021/01/14 06:10:02;;;;;;;5.90;1.85;;;4.40;77.50;;;;;;4918783;29;20048;-85
2021/01/14 06:12:28;;;;;;;5.40;1.60;;;4.40;77.50;;;;;;4903392;29;20119;-84
2021/01/14 06:14:54;;;;;;;3.83;1.30;;;4.40;77.40;;;;;;4935836;29;20044;-84
2021/01/14 06:17:31;;;;;;;2.90;1.20;;;4.40;77.40;;;;;;4903195;29;20040;-84
2021/01/14 06:20:06;;;;;;;1.92;1.17;;;4.40;77.40;;;;;;4920356;29;20567;-84
2021/01/14 06:22:35;;;;;;;2.50;1.17;;;4.40;77.40;;;;;;4936061;29;20028;-85
2021/01/14 06:25:05;;;;;;;2.08;1.45;;;4.40;77.40;;;;;;4935682;29;20036;-84
2021/01/14 06:27:32;;;;;;;3.00;1.33;;;4.40;77.30;;;;;;4935950;29;20446;-84
2021/01/14 06:30:02;;;;;;;3.90;1.27;;;4.40;77.30;;;;;;4918560;29;20123;-83
2021/01/14 06:32:28;;;;;;;2.85;1.38;;;4.40;77.30;;;;;;4935823;29;20036;-82
2021/01/14 06:34:54;;;;;;;2.58;1.27;;;4.30;77.30;;;;;;4918481;29;20043;-85
2021/01/14 06:37:25;;;;;;;2.10;1.20;;;4.30;77.30;;;;;;4918842;29;20035;-85
2021/01/14 06:39:58;;;;;;;2.45;1.50;;;4.40;77.40;;;;;;4918283;29;20382;-85
2021/01/14 06:42:35;;;;;;;3.05;1.70;;;4.40;77.50;;;;;;4934965;29;20039;-84
2021/01/14 06:45:07;;;;;;;3.40;1.40;;;4.30;77.40;;;;;;4935137;29;20032;-84
2021/01/14 06:47:41;;;;;;;2.88;1.13;;;4.30;77.40;;;;;;4914458;29;20083;-84
2021/01/14 06:50:19;;;;;;;2.40;1.20;;;4.30;77.50;;;;;;4916228;29;20056;-84
2021/01/14 06:53:01;;;;;;;4.38;1.08;;;4.30;77.50;;;;;;4916347;29;20496;-84
2021/01/14 06:55:30;;;;;;;4.70;1.40;;;4.30;77.50;;;;;;4916405;29;20056;-85
2021/01/14 06:58:04;;;;;;;3.60;1.08;;;4.30;77.60;;;;;;4924631;29;20094;-83
2021/01/14 07:00:38;;;;;;;2.65;1.52;;;4.30;77.60;;;;;;4898694;29;20520;-84
2021/01/14 07:03:13;;;;;;;2.10;1.20;;;4.20;77.50;;;;;;4916513;29;20024;-84
2021/01/14 07:05:50;;;;;;;4.45;1.50;;;4.30;77.50;;;;;;4933479;29;20127;-85
2021/01/14 07:08:28;;;;;;;2.88;1.27;;;4.20;77.50;;;;;;4934727;29;20031;-83
2021/01/14 07:11:07;;;;;;;1.52;1.10;;;4.20;77.60;;;;;;4916012;29;20040;-86
2021/01/14 07:13:33;;;;;;;;;;;4.20;77.60;;;;;;4916437;29;20035;-84
2021/01/14 07:16:00;;;;;;;3.13;1.25;;;4.20;77.70;;;;;;4933969;29;19907;-84
2021/01/14 07:18:28;;;;;;;1.88;1.20;;;4.20;77.70;;;;;;4934098;29;20475;-84
2021/01/14 07:21:08;;;;;;;3.28;1.40;;;4.10;77.60;;;;;;4917290;29;20064;-84
2021/01/14 07:23:43;;;;;;;2.08;1.23;;;4.20;77.70;;;;;;4917665;29;20036;-84
2021/01/14 07:26:09;;;;;;;2.97;1.27;;;4.20;77.70;;;;;;4917390;29;20043;-84
2021/01/14 07:28:36;;;;;;;1.67;1.20;;;4.10;77.70;;;;;;4917704;29;20504;-84
2021/01/14 07:31:23;;;;;;;3.72;1.20;;;4.10;77.70;;;;;;4901566;29;20042;-84
2021/01/14 07:33:49;;;;;;;3.25;1.30;;;4.10;77.70;;;;;;4935032;29;20394;-84
2021/01/14 07:36:19;;;;;;;2.10;1.20;;;4.10;77.80;;;;;;4901444;29;20403;-84
2021/01/14 07:38:54;;;;;;;4.55;1.63;;;4.10;77.80;;;;;;4941725;23;20039;-87
2021/01/14 07:41:20;;;;;;;3.15;1.10;;;4.10;77.90;;;;;;4880051;29;20077;-87
2021/01/14 07:43:47;;;;;;;4.28;1.58;;;4.10;77.90;;;;;;4897237;29;20036;-87
2021/01/14 07:46:40;;;;;;;3.53;1.40;;;4.10;77.90;;;;;;4896507;29;20363;-87
2021/01/14 07:49:26;;;;;;;2.95;1.40;;;4.10;77.90;;;;;;4897159;29;20048;-87
2021/01/14 07:51:52;;;;;;;3.08;1.42;;;4.00;77.80;;;;;;4880152;29;20043;-87
2021/01/14 07:54:17;;;;;;;4.30;1.58;;;4.00;77.90;;;;;;4849298;29;20036;-87
2021/01/14 07:56:50;;;;;;;5.97;1.50;;;4.00;77.90;;;;;;4897238;29;20032;-87
2021/01/14 07:59:27;;;;;;;10.00;2.00;;;4.00;77.90;;;;;;4880088;29;20522;-87
2021/01/14 08:02:18;;;;;;;5.47;1.85;;;4.00;77.90;;;;;;4880405;29;20040;-87
2021/01/14 08:04:48;;;;;;;4.57;2.03;;;4.00;77.80;;;;;;4878579;29;20053;-88
2021/01/14 08:07:40;;;;;;;5.85;1.90;;;3.90;77.90;;;;;;4879939;29;20084;-87
2021/01/14 08:10:15;;;;;;;5.05;1.92;;;4.00;77.90;;;;;;4878125;29;20510;-87
2021/01/14 08:12:45;;;;;;;4.10;1.83;;;3.90;77.90;;;;;;4895960;29;20065;-87
2021/01/14 08:15:34;;;;;;;4.20;1.85;;;4.00;77.90;;;;;;4880274;29;20060;-89
2021/01/14 08:18:12;;;;;;;5.22;2.00;;;3.90;77.90;;;;;;4880979;29;20072;-90
2021/01/14 08:20:38;;;;;;;3.25;1.85;;;3.90;77.90;;;;;;4850385;29;20103;-91
2021/01/14 08:23:13;;;;;;;6.65;1.85;;;3.90;77.90;;;;;;4849967;29;20045;-93
2021/01/14 08:25:39;;;;;;;5.68;2.30;;;3.90;78.00;;;;;;4882278;29;20120;-92
2021/01/14 08:28:04;;;;;;;5.88;2.05;;;3.90;78.00;;;;;;4865114;29;20045;-92
2021/01/14 08:30:39;;;;;;;4.53;2.15;;;3.90;78.00;;;;;;4850527;29;20115;-93
2021/01/14 08:33:05;;;;;;;4.63;1.60;;;3.80;78.00;;;;;;4866353;29;20116;-93
2021/01/14 08:35:33;;;;;;;4.15;1.63;;;3.80;78.00;;;;;;4881388;29;20033;-93
2021/01/14 08:38:19;;;;;;;4.00;1.75;;;3.80;77.90;;;;;;4882378;29;20406;-93
2021/01/14 08:40:46;;;;;;;5.85;1.65;;;3.80;77.90;;;;;;4882231;29;20064;-93
2021/01/14 08:43:18;;;;;;;4.13;1.73;;;3.80;78.00;;;;;;4852043;29;20044;-93
2021/01/14 08:45:51;;;;;;;6.43;2.50;;;3.80;78.60;;;;;;4882711;29;20128;-93
2021/01/14 08:48:22;;;;;;;5.90;1.80;;;3.80;77.90;;;;;;4882295;29;20064;-92
2021/01/14 08:50:56;;;;;;;3.13;2.00;;;3.80;77.90;;;;;;4866929;29;20039;-92
2021/01/14 08:53:22;;;;;;;3.40;1.52;;;3.80;77.90;;;;;;4882245;29;20037;-93
2021/01/14 08:56:00;;;;;;;4.13;1.65;;;3.80;77.90;;;;;;4882111;29;20080;-93
2021/01/14 08:58:33;;;;;;;3.00;1.70;;;3.80;77.90;;;;;;4882535;29;20044;-93
2021/01/14 09:00:59;;;;;;;5.60;1.73;;;3.70;77.90;;;;;;4882257;29;20041;-93
2021/01/14 09:03:28;;;;;;;5.18;1.90;;;3.80;77.80;;;;;;4868312;29;20120;-89
2021/01/14 09:05:55;;;;;;;3.45;1.63;;;3.80;77.90;;;;;;4876743;29;20467;-89
2021/01/14 09:08:21;;;;;;;7.30;1.85;;;3.80;77.90;;;;;;4890936;29;20090;-92
2021/01/14 09:10:48;;;;;;;4.57;1.60;;;3.70;77.90;;;;;;4867441;29;20041;-93
2021/01/14 09:13:16;;;;;;;4.00;1.60;;;3.70;77.90;;;;;;4904048;29;20153;-94
2021/01/14 09:15:42;;;;;;;4.28;1.60;;;3.70;77.90;;;;;;4904285;29;20084;-93
2021/01/14 09:18:09;;;;;;;7.88;1.63;;;3.70;77.90;;;;;;4889212;29;20036;-94
2021/01/14 09:20:35;;;;;;;3.50;1.50;;;3.70;77.90;;;;;;4904140;29;20458;-94
2021/01/14 09:23:19;;;;;;;4.13;1.90;;;3.80;78.00;;;;;;4888498;29;20044;-93
2021/01/14 09:25:46;;;;;;;6.80;1.80;;;3.80;78.00;;;;;;4888968;29;20507;-93
2021/01/14 09:28:12;;;;;;;8.10;2.08;;;3.80;78.00;;;;;;4904183;29;20048;-94
2021/01/14 09:30:38;;;;;;;4.88;2.50;;;3.80;78.00;;;;;;4888877;29;20036;-94
2021/01/14 09:33:05;;;;;;;4.25;1.88;;;3.80;78.00;;;;;;4904597;29;20088;-93
2021/01/14 09:35:31;;;;;;;4.82;1.73;;;3.80;78.00;;;;;;4888756;29;20040;-93
2021/01/14 09:37:57;;;;;;;5.22;2.00;;;3.80;78.00;;;;;;4873454;29;20132;-93
2021/01/14 09:40:23;;;;;;;7.05;1.80;;;3.90;78.10;;;;;;4888252;29;20059;-93
2021/01/14 09:42:50;;;;;;;5.63;2.20;;;3.80;78.00;;;;;;4903833;29;20157;-93
2021/01/14 09:45:20;;;;;;;5.15;1.90;;;3.80;77.90;;;;;;4903583;29;20032;-94
2021/01/14 09:47:52;;;;;;;6.18;1.95;;;3.80;77.90;;;;;;4889715;29;20043;-93
2021/01/14 09:50:23;;;;;;;5.78;1.80;;;3.80;77.90;;;;;;4869373;29;20036;-93
2021/01/14 09:52:49;;;;;;;6.53;2.17;;;3.90;78.00;;;;;;4871542;29;20092;-89
2021/01/14 09:55:15;;;;;;;4.95;1.77;;;3.90;78.00;;;;;;4833485;29;20036;-89
2021/01/14 09:57:52;;;;;;;7.75;2.13;;;3.90;78.00;;;;;;4854703;29;20068;-89
2021/01/14 10:00:25;;;;;;;4.90;1.80;;;3.90;78.00;;;;;;4878844;29;20040;-89
2021/01/14 10:03:00;;;;;;;8.07;2.10;;;3.90;78.00;;;;;;4879256;29;20129;-90
2021/01/14 10:05:27;;;;;;;9.73;2.30;;;3.90;78.00;;;;;;4863914;29;20044;-89
2021/01/14 10:07:59;;;;;;;7.13;1.90;;;3.90;77.90;;;;;;4863941;29;20033;-89
2021/01/14 10:10:29;;;;;;;4.65;1.98;;;3.90;78.00;;;;;;4863680;29;20120;-90
2021/01/14 10:12:55;;;;;;;4.47;1.90;;;4.00;78.00;;;;;;4848721;29;20052;-89
2021/01/14 10:15:21;;;;;;;4.50;2.28;;;4.00;78.00;;;;;;4848505;29;20037;-89
2021/01/14 10:17:47;;;;;;;7.20;2.50;;;4.00;78.00;;;;;;4848415;29;20041;-89
2021/01/14 10:20:16;;;;;;;6.45;2.40;;;4.00;77.90;;;;;;4848606;29;20041;-90
2021/01/14 10:22:54;;;;;;;8.80;2.70;;;4.00;77.70;;;;;;4863856;29;20046;-89
2021/01/14 10:25:21;;;;;;;6.25;2.72;;;4.00;77.60;;;;;;4848275;29;20073;-87
2021/01/14 10:28:04;;;;;;;8.30;2.33;;;4.00;77.40;;;;;;4878009;29;20060;-89
2021/01/14 10:30:30;;;;;;;6.10;2.55;;;4.00;77.30;;;;;;4910163;29;20096;-88
2021/01/14 10:33:01;;;;;;;5.70;2.22;;;4.00;77.40;;;;;;4881534;29;20072;-88
2021/01/14 10:35:29;;;;;;;6.22;2.58;;;4.00;77.30;;;;;;4881782;29;20032;-89
2021/01/14 10:38:03;;;;;;;7.70;2.53;;;4.00;77.30;;;;;;4866627;29;20518;-88
2021/01/14 10:40:37;;;;;;;7.88;2.78;;;4.00;77.30;;;;;;4881115;29;20499;-88
2021/01/14 10:43:04;;;;;;;6.25;2.40;;;4.00;77.30;;;;;;4898541;29;20047;-88
2021/01/14 10:45:31;;;;;;;9.38;2.90;;;4.10;77.30;;;;;;4881333;29;20048;-89
2021/01/14 10:48:14;;;;;;;13.73;3.03;;;4.10;77.30;;;;;;4881546;29;20131;-88
2021/01/14 10:51:00;;;;;;;7.10;2.88;;;4.10;77.00;;;;;;4881171;29;20438;-88
2021/01/14 10:53:33;;;;;;;8.70;3.38;;;4.10;77.10;;;;;;4880910;29;20100;-88
2021/01/14 10:56:04;;;;;;;6.07;3.17;;;4.00;77.10;;;;;;4881670;29;20100;-89
2021/01/14 10:58:30;;;;;;;10.40;4.20;;;4.10;77.20;;;;;;4881403;29;20135;-88
2021/01/14 11:00:56;;;;;;;7.78;3.22;;;4.10;77.00;;;;;;4900940;29;20128;-88
2021/01/14 11:03:23;;;;;;;5.85;2.97;;;4.10;76.90;;;;;;4859403;29;20044;-88
2021/01/14 11:05:59;;;;;;;9.75;3.35;;;4.10;76.90;;;;;;4878046;29;20582;-88
2021/01/14 11:08:37;;;;;;;8.32;3.40;;;4.10;76.90;;;;;;4861669;29;20056;-89
2021/01/14 11:11:15;;;;;;;8.00;2.92;;;4.10;76.70;;;;;;4847229;29;20041;-88
2021/01/14 11:13:45;;;;;;;7.25;2.90;;;4.10;77.50;;;;;;4845958;29;20331;-88
2021/01/14 11:16:11;;;;;;;8.57;2.75;;;4.20;76.80;;;;;;4878048;29;20609;-88
2021/01/14 11:18:38;;;;;;;10.02;3.97;;;4.20;76.90;;;;;;4846889;29;20049;-88
2021/01/14 11:21:06;;;;;;;8.10;3.47;;;4.20;76.90;;;;;;4877970;29;20041;-89
2021/01/14 11:23:32;;;;;;;5.43;2.85;;;4.20;76.90;;;;;;4862620;29;20124;-88
2021/01/14 11:26:01;;;;;;;6.72;2.97;;;4.20;76.90;;;;;;4862309;29;20466;-88
2021/01/14 11:28:28;;;;;;;14.48;3.70;;;4.20;76.80;;;;;;4845488;29;20093;-89
2021/01/14 11:30:53;;;;;;;10.23;3.88;;;4.20;76.70;;;;;;4862221;29;20055;-88
2021/01/14 11:33:22;;;;;;;7.53;3.50;;;4.30;76.40;;;;;;4849976;29;20480;-88
2021/01/14 11:35:47;;;;;;;7.97;2.97;;;4.20;76.30;;;;;;4862255;29;20080;-88
2021/01/14 11:38:13;;;;;;;9.48;3.60;;;4.30;76.50;;;;;;4878014;29;20072;-88
2021/01/14 11:40:39;;;;;;;8.73;3.53;;;4.30;76.50;;;;;;4861694;29;20069;-88
2021/01/14 11:43:04;;;;;;;9.07;3.20;;;4.30;76.40;;;;;;4862165;29;20136;-88
2021/01/14 11:45:30;;;;;;;7.07;4.00;;;4.30;76.20;;;;;;4861854;29;20093;-87
2021/01/14 11:47:56;;;;;;;7.65;3.28;;;4.30;76.10;;;;;;4862427;29;20100;-88
2021/01/14 11:50:21;;;;;;;8.43;3.58;;;4.30;76.30;;;;;;4862053;29;20084;-88
2021/01/14 11:52:48;;;;;;;11.68;3.70;;;4.30;76.20;;;;;;4861834;29;20045;-88
2021/01/14 11:55:14;;;;;;;7.85;3.25;;;4.30;76.10;;;;;;4877984;29;20039;-88
2021/01/14 11:57:40;;;;;;;7.60;3.22;;;4.30;75.90;;;;;;4883304;29;20040;-88
2021/01/14 12:00:08;;;;;;;8.10;3.70;;;4.30;75.90;;;;;;4868262;29;20059;-89
2021/01/14 12:02:33;;;;;;;7.57;3.70;;;4.30;76.00;;;;;;4882599;29;20040;-88
2021/01/14 12:04:59;;;;;;;8.02;3.88;;;4.30;75.80;;;;;;4861934;29;20056;-87
2021/01/14 12:07:24;;;;;;;8.93;3.63;;;4.30;75.80;;;;;;4846812;29;20101;-88
2021/01/14 12:09:50;;;;;;;7.57;3.47;;;4.30;75.60;;;;;;4846231;29;20049;-89
2021/01/14 12:12:15;;;;;;;8.43;3.58;;;4.40;75.50;;;;;;4852742;29;20055;-88
2021/01/14 12:14:41;;;;;;;6.50;3.33;;;4.40;75.50;;;;;;4864862;29;20055;-87
2021/01/14 12:17:07;;;;;;;9.95;4.07;;;4.40;75.60;;;;;;4879316;29;20048;-88
2021/01/14 12:19:32;;;;;;;8.40;4.15;;;4.40;75.50;;;;;;4839974;29;20037;-87
2021/01/14 12:22:05;;;;;;;8.98;4.80;;;4.40;75.50;;;;;;4876172;29;20135;-87
2021/01/14 12:24:31;;;;;;;8.50;4.20;;;4.40;74.50;;;;;;4878995;29;20040;-87
2021/01/14 12:26:57;;;;;;;15.10;5.10;;;4.40;74.80;;;;;;4863105;29;20047;-87
2021/01/14 12:29:23;;;;;;;9.02;4.55;;;4.40;74.70;;;;;;4872576;29;20616;-87
2021/01/14 12:31:50;;;;;;;11.98;4.70;;;4.30;74.60;;;;;;4870575;29;20372;-87
2021/01/14 12:34:15;;;;;;;10.73;5.28;;;4.40;74.90;;;;;;4896124;29;20040;-87
2021/01/14 12:36:41;;;;;;;9.63;5.07;;;4.30;75.00;;;;;;4870867;29;20041;-86
2021/01/14 12:39:06;;;;;;;8.40;5.15;;;4.40;74.80;;;;;;4857232;29;20049;-86
2021/01/14 12:41:33;;;;;;;9.40;5.80;;;4.40;75.60;;;;;;4853508;29;20080;-87
2021/01/14 12:43:59;;;;;;;12.68;5.90;;;4.40;75.00;;;;;;4865094;29;20046;-87
2021/01/14 12:46:38;;;;;;;10.32;6.10;;;4.40;75.00;;;;;;4884396;29;20039;-86
2021/01/14 12:49:04;;;;;;;;;;;4.40;75.00;;;;;;4875479;29;20039;-87
2021/01/14 12:51:30;;;;;;;10.77;6.00;;;4.40;75.10;;;;;;4889457;29;19946;-87
2021/01/14 12:53:56;;;;;;;14.77;8.45;;;4.40;75.10;;;;;;4870698;29;20557;-87
2021/01/14 12:56:21;;;;;;;12.00;7.22;;;4.40;74.90;;;;;;4863982;29;20051;-87
2021/01/14 12:58:47;;;;;;;15.05;8.70;;;4.40;75.00;;;;;;4862663;29;20072;-87
2021/01/14 13:01:12;;;;;;;14.98;8.70;;;4.50;75.60;;;;;;4847433;29;20041;-87
2021/01/14 13:03:38;;;;;;;14.90;8.73;;;4.50;74.90;;;;;;4848678;29;20080;-86
2021/01/14 13:06:04;;;;;;;15.77;9.18;;;4.40;74.60;;;;;;4854897;29;20097;-87
2021/01/14 13:08:29;;;;;;;16.85;10.55;;;4.40;74.80;;;;;;4849037;29;20067;-87